createdAt,value
2019-06-15T00:00:31.405Z,19.29
2019-06-15T00:03:00.389Z,19.13
2019-06-15T00:05:29.279Z,19.00
2019-06-15T00:07:58.572Z,18.96
2019-06-15T00:10:28.067Z,19.02
2019-06-15T00:12:57.033Z,19.08
2019-06-15T00:15:26.092Z,19.15
2019-06-15T00:17:55.378Z,19.15
2019-06-15T00:20:24.857Z,19.14
2019-06-15T00:22:53.714Z,19.11
2019-06-15T00:25:22.618Z,19.06
2019-06-15T00:27:51.517Z,19.10
2019-06-15T00:30:20.937Z,19.14
2019-06-15T00:32:50.173Z,19.17
2019-06-15T00:35:19.051Z,19.18
2019-06-15T00:37:48.006Z,19.21
2019-06-15T00:40:17.059Z,19.21
2019-06-15T00:42:46.281Z,19.22
2019-06-15T00:45:15.282Z,19.21
2019-06-15T00:47:44.751Z,19.21
2019-06-15T00:50:13.771Z,19.23
2019-06-15T00:52:43.011Z,19.22
2019-06-15T00:55:12.621Z,19.18
2019-06-15T00:57:42.128Z,19.10
2019-06-15T01:00:11.071Z,18.92
2019-06-15T01:02:39.991Z,18.76
2019-06-15T01:05:09.424Z,18.76
2019-06-15T01:07:38.344Z,18.83
2019-06-15T01:10:07.919Z,18.90
2019-06-15T01:12:36.930Z,18.95
2019-06-15T01:15:07.522Z,18.96
2019-06-15T01:17:36.718Z,18.97
2019-06-15T01:20:06.429Z,18.99
2019-06-15T01:22:35.470Z,18.98
2019-06-15T01:25:05.943Z,18.98
2019-06-15T01:27:35.122Z,18.95
2019-06-15T01:30:04.487Z,18.94
2019-06-15T01:32:33.630Z,18.83
2019-06-15T01:35:02.950Z,18.76
2019-06-15T01:37:32.366Z,18.75
2019-06-15T01:40:01.553Z,18.76
2019-06-15T01:42:30.575Z,18.77
2019-06-15T01:45:00.047Z,18.78
2019-06-15T01:47:29.021Z,18.76
2019-06-15T01:49:57.995Z,18.75
2019-06-15T01:52:27.362Z,18.76
2019-06-15T01:54:56.229Z,18.74
2019-06-15T01:57:25.131Z,18.67
2019-06-15T01:59:54.429Z,18.65
2019-06-15T02:02:23.370Z,18.67
2019-06-15T02:04:52.424Z,18.67
2019-06-15T02:07:21.596Z,18.66
2019-06-15T02:09:50.960Z,18.66
2019-06-15T02:12:20.121Z,18.64
2019-06-15T02:14:49.300Z,18.60
2019-06-15T02:17:18.641Z,18.59
2019-06-15T02:19:47.608Z,18.57
2019-06-15T02:22:16.795Z,18.51
2019-06-15T02:24:45.688Z,18.48
2019-06-15T02:27:15.080Z,18.46
2019-06-15T02:29:44.283Z,18.42
2019-06-15T02:32:13.251Z,18.39
2019-06-15T02:34:42.198Z,18.37
2019-06-15T02:37:11.174Z,18.33
2019-06-15T02:39:40.435Z,18.29
2019-06-15T02:42:09.970Z,18.24
2019-06-15T02:44:39.460Z,18.20
2019-06-15T02:47:08.675Z,18.16
2019-06-15T02:49:37.894Z,18.12
2019-06-15T02:52:06.860Z,18.08
2019-06-15T02:54:36.056Z,18.06
2019-06-15T02:57:05.074Z,18.04
2019-06-15T02:59:34.333Z,18.04
2019-06-15T03:02:03.266Z,18.05
2019-06-15T03:04:32.437Z,18.07
2019-06-15T03:07:02.093Z,18.09
2019-06-15T03:09:31.053Z,18.09
2019-06-15T03:11:59.982Z,18.08
2019-06-15T03:14:28.832Z,18.05
2019-06-15T03:16:58.068Z,18.05
2019-06-15T03:19:27.187Z,18.01
2019-06-15T03:21:56.094Z,18.00
2019-06-15T03:24:24.947Z,17.98
2019-06-15T03:26:53.849Z,17.98
2019-06-15T03:29:22.644Z,18.01
2019-06-15T03:31:51.573Z,18.05
2019-06-15T03:34:20.799Z,18.11
2019-06-15T03:36:49.829Z,18.14
2019-06-15T03:39:19.026Z,18.15
2019-06-15T03:41:48.424Z,18.14
2019-06-15T03:44:17.638Z,18.19
2019-06-15T03:46:46.537Z,18.17
2019-06-15T03:49:15.538Z,18.20
2019-06-15T03:51:44.501Z,18.26
2019-06-15T03:54:13.859Z,18.33
2019-06-15T03:56:42.986Z,18.41
2019-06-15T03:59:11.867Z,18.57
2019-06-15T04:01:46.747Z,18.73
2019-06-15T04:04:15.676Z,18.88
2019-06-15T04:06:45.149Z,19.01
2019-06-15T04:09:14.349Z,19.18
2019-06-15T04:11:43.483Z,19.31
2019-06-15T04:14:13.056Z,19.44
2019-06-15T04:16:42.045Z,19.56
2019-06-15T04:19:10.963Z,19.66
2019-06-15T04:21:39.830Z,19.85
2019-06-15T04:24:08.875Z,20.04
2019-06-15T04:26:37.741Z,20.22
2019-06-15T04:29:06.713Z,20.44
2019-06-15T04:31:35.911Z,20.69
2019-06-15T04:34:05.455Z,20.96
2019-06-15T04:36:34.623Z,21.21
2019-06-15T04:39:05.653Z,21.51
2019-06-15T04:41:34.603Z,21.76
2019-06-15T04:44:03.949Z,21.98
2019-06-15T04:46:33.252Z,22.20
2019-06-15T04:49:02.227Z,22.42
2019-06-15T04:51:31.124Z,22.62
2019-06-15T04:54:00.407Z,22.69
2019-06-15T04:56:29.354Z,22.67
2019-06-15T04:58:58.615Z,22.83
2019-06-15T05:01:28.220Z,22.95
2019-06-15T05:03:57.133Z,23.04
2019-06-15T05:06:26.083Z,22.83
2019-06-15T05:08:55.173Z,22.53
2019-06-15T05:11:24.097Z,22.11
2019-06-15T05:13:52.980Z,21.78
2019-06-15T05:16:22.196Z,21.46
2019-06-15T05:18:51.109Z,21.31
2019-06-15T05:21:20.338Z,21.33
2019-06-15T05:23:49.160Z,21.48
2019-06-15T05:26:18.593Z,21.72
2019-06-15T05:28:47.764Z,22.27
2019-06-15T05:31:17.027Z,22.97
2019-06-15T05:33:45.912Z,23.75
2019-06-15T05:36:14.859Z,24.36
2019-06-15T05:38:43.674Z,24.81
2019-06-15T05:41:15.642Z,25.31
2019-06-15T05:43:43.558Z,25.72
2019-06-15T05:46:12.553Z,25.97
2019-06-15T05:48:42.278Z,26.12
2019-06-15T05:51:11.568Z,26.23
2019-06-15T05:53:40.427Z,26.24
2019-06-15T05:56:09.948Z,25.65
2019-06-15T05:58:38.831Z,24.81
2019-06-15T06:01:08.259Z,24.13
2019-06-15T06:03:37.250Z,23.52
2019-06-15T06:06:06.140Z,22.96
2019-06-15T06:08:35.434Z,22.53
2019-06-15T06:11:04.957Z,22.48
2019-06-15T06:13:34.117Z,22.63
2019-06-15T06:16:03.431Z,22.62
2019-06-15T06:18:32.539Z,22.34
2019-06-15T06:21:01.857Z,22.13
2019-06-15T06:23:31.146Z,21.97
2019-06-15T06:26:00.689Z,21.85
2019-06-15T06:28:29.942Z,21.83
2019-06-15T06:30:59.244Z,21.85
2019-06-15T06:33:28.437Z,21.79
2019-06-15T06:35:57.527Z,21.87
2019-06-15T06:38:26.545Z,22.00
2019-06-15T06:40:56.172Z,22.06
2019-06-15T06:43:26.001Z,22.14
2019-06-15T06:45:55.266Z,21.98
2019-06-15T06:48:24.397Z,21.88
2019-06-15T06:50:53.418Z,21.76
2019-06-15T06:53:22.366Z,21.70
2019-06-15T06:55:51.356Z,21.70
2019-06-15T06:58:20.829Z,21.73
2019-06-15T07:00:49.778Z,21.76
2019-06-15T07:03:18.864Z,21.76
2019-06-15T07:05:47.843Z,21.82
2019-06-15T07:08:16.734Z,21.84
2019-06-15T07:10:45.722Z,21.89
2019-06-15T07:13:14.675Z,21.82
2019-06-15T07:15:43.944Z,21.65
2019-06-15T07:18:12.910Z,21.43
2019-06-15T07:20:41.866Z,21.26
2019-06-15T07:23:10.750Z,21.06
2019-06-15T07:25:39.644Z,21.01
2019-06-15T07:28:08.778Z,20.98
2019-06-15T07:30:37.758Z,21.01
2019-06-15T07:33:06.679Z,20.98
2019-06-15T07:35:35.611Z,20.90
2019-06-15T07:38:04.920Z,20.82
2019-06-15T07:40:33.938Z,20.73
2019-06-15T07:43:03.262Z,20.63
2019-06-15T07:45:32.512Z,20.57
2019-06-15T07:48:01.403Z,20.58
2019-06-15T07:50:30.952Z,20.56
2019-06-15T07:53:00.300Z,20.43
2019-06-15T07:55:29.217Z,20.26
2019-06-15T07:57:58.233Z,20.16
2019-06-15T08:00:27.234Z,20.07
2019-06-15T08:02:56.222Z,20.01
2019-06-15T08:05:25.460Z,19.91
2019-06-15T08:07:55.201Z,19.87
2019-06-15T08:10:24.535Z,19.81
2019-06-15T08:12:53.429Z,19.77
2019-06-15T08:15:23.017Z,19.78
2019-06-15T08:17:52.605Z,19.77
2019-06-15T08:20:26.136Z,19.77
2019-06-15T08:22:54.951Z,19.77
2019-06-15T08:25:23.894Z,19.77
2019-06-15T08:27:52.840Z,19.78
2019-06-15T08:30:28.168Z,19.80
2019-06-15T08:32:57.153Z,19.84
2019-06-15T08:35:26.153Z,19.84
2019-06-15T08:37:55.155Z,19.87
2019-06-15T08:40:24.124Z,20.09
2019-06-15T08:42:53.058Z,20.39
2019-06-15T08:45:22.066Z,20.84
2019-06-15T08:47:51.389Z,21.30
2019-06-15T08:50:20.794Z,21.69
2019-06-15T08:52:49.968Z,22.02
2019-06-15T08:55:19.281Z,22.19
2019-06-15T08:57:48.154Z,22.58
2019-06-15T09:00:17.778Z,22.91
2019-06-15T09:02:47.074Z,23.07
2019-06-15T09:05:16.308Z,23.22
2019-06-15T09:07:45.210Z,23.40
2019-06-15T09:10:14.315Z,23.55
2019-06-15T09:12:43.268Z,23.64
2019-06-15T09:15:12.395Z,23.79
2019-06-15T09:17:41.574Z,23.94
2019-06-15T09:20:10.726Z,23.88
2019-06-15T09:22:39.929Z,23.86
2019-06-15T09:25:09.578Z,23.92
2019-06-15T09:27:39.160Z,23.87
2019-06-15T09:30:08.560Z,23.72
2019-06-15T09:32:37.436Z,23.52
2019-06-15T09:35:06.852Z,23.49
2019-06-15T09:37:35.904Z,23.42
2019-06-15T09:40:05.541Z,23.31
2019-06-15T09:42:34.568Z,23.12
2019-06-15T09:45:03.544Z,22.73
2019-06-15T09:47:33.048Z,22.37
2019-06-15T09:50:02.557Z,22.06
2019-06-15T09:52:31.486Z,21.86
2019-06-15T09:55:00.497Z,21.75
2019-06-15T09:57:29.440Z,21.63
2019-06-15T09:59:58.353Z,21.48
2019-06-15T10:02:27.537Z,21.40
2019-06-15T10:04:56.732Z,21.43
2019-06-15T10:07:25.675Z,21.34
2019-06-15T10:09:54.939Z,21.14
2019-06-15T10:12:23.865Z,20.85
2019-06-15T10:14:52.774Z,20.57
2019-06-15T10:17:22.149Z,20.44
2019-06-15T10:19:51.235Z,20.38
2019-06-15T10:22:20.148Z,20.39
2019-06-15T10:24:49.072Z,20.44
2019-06-15T10:27:18.079Z,20.48
2019-06-15T10:29:46.959Z,20.63
2019-06-15T10:32:15.940Z,20.81
2019-06-15T10:34:44.842Z,20.93
2019-06-15T10:37:13.726Z,20.94
2019-06-15T10:39:42.665Z,20.90
2019-06-15T10:42:11.488Z,20.86
2019-06-15T10:44:40.735Z,20.77
2019-06-15T10:47:09.937Z,20.61
2019-06-15T10:49:38.822Z,20.53
2019-06-15T10:52:07.842Z,20.35
2019-06-15T10:54:36.908Z,20.17
2019-06-15T10:57:05.832Z,20.19
2019-06-15T10:59:35.070Z,20.38
2019-06-15T11:02:04.382Z,20.62
2019-06-15T11:04:33.283Z,20.83
2019-06-15T11:07:02.178Z,21.16
2019-06-15T11:09:31.118Z,21.59
2019-06-15T11:12:00.045Z,21.97
2019-06-15T11:14:29.544Z,22.34
2019-06-15T11:17:00.765Z,22.51
2019-06-15T11:19:29.641Z,22.20
2019-06-15T11:21:58.610Z,22.10
2019-06-15T11:24:27.585Z,22.16
2019-06-15T11:26:56.477Z,22.45
2019-06-15T11:29:25.687Z,22.61
2019-06-15T11:31:54.645Z,22.55
2019-06-15T11:34:23.856Z,22.66
2019-06-15T11:36:52.744Z,22.57
2019-06-15T11:39:21.652Z,22.44
2019-06-15T11:41:50.640Z,22.22
2019-06-15T11:44:19.568Z,21.97
2019-06-15T11:46:48.419Z,21.72
2019-06-15T11:49:17.699Z,21.82
2019-06-15T11:51:46.972Z,21.88
2019-06-15T11:54:16.104Z,21.99
2019-06-15T11:56:45.078Z,22.15
2019-06-15T11:59:14.030Z,22.06
2019-06-15T12:01:43.295Z,21.67
2019-06-15T12:04:12.196Z,21.34
2019-06-15T12:06:41.203Z,21.08
2019-06-15T12:09:10.434Z,20.99
2019-06-15T12:11:39.962Z,21.15
2019-06-15T12:14:08.906Z,21.08
2019-06-15T12:16:37.767Z,21.38
2019-06-15T12:19:06.707Z,21.73
2019-06-15T12:21:35.956Z,22.08
2019-06-15T12:24:05.110Z,22.43
2019-06-15T12:26:34.059Z,22.73
2019-06-15T12:29:03.019Z,23.01
2019-06-15T12:31:32.209Z,22.99
2019-06-15T12:34:01.512Z,23.02
2019-06-15T12:36:30.814Z,22.82
2019-06-15T12:38:59.760Z,22.73
2019-06-15T12:41:28.670Z,22.65
2019-06-15T12:43:57.614Z,22.45
2019-06-15T12:46:26.905Z,22.28
2019-06-15T12:48:55.843Z,22.22
2019-06-15T12:51:24.840Z,22.16
2019-06-15T12:53:53.976Z,22.21
2019-06-15T12:56:23.248Z,22.12
2019-06-15T12:58:52.604Z,22.22
2019-06-15T13:01:21.581Z,22.37
2019-06-15T13:03:50.551Z,22.48
2019-06-15T13:06:19.774Z,22.54
2019-06-15T13:08:48.690Z,22.49
2019-06-15T13:11:17.596Z,22.53
2019-06-15T13:13:46.564Z,22.66
2019-06-15T13:16:15.505Z,22.87
2019-06-15T13:18:44.838Z,23.11
2019-06-15T13:21:14.056Z,23.23
2019-06-15T13:23:42.960Z,23.20
2019-06-15T13:26:11.868Z,23.31
2019-06-15T13:28:41.180Z,23.37
2019-06-15T13:31:18.204Z,23.20
2019-06-15T13:33:40.738Z,22.87
2019-06-15T13:36:12.447Z,22.85
2019-06-15T13:38:43.560Z,22.97
2019-06-15T13:41:12.846Z,22.95
2019-06-15T13:43:41.654Z,22.82
2019-06-15T13:46:10.530Z,22.95
2019-06-15T13:48:39.479Z,23.01
2019-06-15T13:51:08.833Z,23.06
2019-06-15T13:53:37.746Z,23.13
2019-06-15T13:56:06.631Z,23.26
2019-06-15T13:58:35.545Z,23.34
2019-06-15T14:01:04.523Z,23.54
2019-06-15T14:03:33.603Z,23.68
2019-06-15T14:06:02.503Z,23.75
2019-06-15T14:08:31.663Z,23.86
2019-06-15T14:11:01.025Z,23.78
2019-06-15T14:13:29.898Z,23.58
2019-06-15T14:15:59.118Z,23.42
2019-06-15T14:18:28.000Z,23.27
2019-06-15T14:20:56.986Z,23.19
2019-06-15T14:23:25.907Z,23.20
2019-06-15T14:25:54.795Z,23.26
2019-06-15T14:28:23.779Z,23.42
2019-06-15T14:30:52.909Z,23.52
2019-06-15T14:33:21.902Z,23.53
2019-06-15T14:35:51.250Z,23.59
2019-06-15T14:38:20.506Z,23.68
2019-06-15T14:40:49.745Z,23.74
2019-06-15T14:43:18.912Z,23.62
2019-06-15T14:45:58.921Z,23.58
2019-06-15T14:48:19.229Z,23.58
2019-06-15T14:50:48.141Z,23.58
2019-06-15T14:53:17.104Z,23.66
2019-06-15T14:55:46.525Z,23.75
2019-06-15T14:58:17.103Z,23.78
2019-06-15T15:00:46.781Z,23.80
2019-06-15T15:03:17.163Z,23.80
2019-06-15T15:05:46.145Z,23.89
2019-06-15T15:08:15.068Z,23.96
2019-06-15T15:10:44.189Z,23.99
2019-06-15T15:13:13.071Z,23.91
2019-06-15T15:15:42.311Z,23.91
2019-06-15T15:18:12.060Z,23.85
2019-06-15T15:20:40.982Z,23.86
2019-06-15T15:23:10.168Z,23.91
2019-06-15T15:25:39.076Z,23.84
2019-06-15T15:28:08.013Z,23.77
2019-06-15T15:30:40.952Z,23.83
2019-06-15T15:33:09.933Z,23.71
2019-06-15T15:35:39.153Z,23.52
2019-06-15T15:38:08.102Z,23.37
2019-06-15T15:40:37.038Z,23.34
2019-06-15T15:43:06.996Z,23.38
2019-06-15T15:45:37.022Z,23.39
2019-06-15T15:48:06.944Z,23.47
2019-06-15T15:50:37.069Z,23.53
2019-06-15T15:53:06.579Z,23.53
2019-06-15T15:55:35.535Z,23.50
2019-06-15T15:58:06.796Z,23.36
2019-06-15T16:00:35.388Z,23.26
2019-06-15T16:03:07.117Z,23.08
2019-06-15T16:05:37.041Z,22.90
2019-06-15T16:08:06.767Z,22.78
2019-06-15T16:10:37.447Z,22.72
2019-06-15T16:13:06.688Z,22.71
2019-06-15T16:15:37.199Z,22.68
2019-06-15T16:18:06.911Z,22.59
2019-06-15T16:20:37.038Z,22.48
2019-06-15T16:23:07.441Z,22.41
2019-06-15T16:25:37.337Z,22.38
2019-06-15T16:28:07.048Z,22.35
2019-06-15T16:31:00.471Z,22.32
2019-06-15T16:33:07.979Z,22.38
2019-06-15T16:35:37.134Z,22.57
2019-06-15T16:38:06.895Z,22.76
2019-06-15T16:40:38.621Z,22.92
2019-06-15T16:43:07.652Z,22.92
2019-06-15T16:45:36.736Z,22.86
2019-06-15T16:48:06.499Z,22.88
2019-06-15T16:50:36.609Z,22.89
2019-06-15T16:53:06.999Z,22.99
2019-06-15T16:55:37.052Z,23.05
2019-06-15T16:58:07.376Z,23.16
2019-06-15T17:00:36.766Z,23.16
2019-06-15T17:03:19.939Z,23.16
2019-06-15T17:05:37.286Z,23.00
2019-06-15T17:08:07.162Z,22.88
2019-06-15T17:10:39.003Z,22.80
2019-06-15T17:13:07.977Z,22.71
2019-06-15T17:15:37.248Z,22.65
2019-06-15T17:18:06.747Z,22.56
2019-06-15T17:20:42.982Z,22.50
2019-06-15T17:23:11.835Z,22.47
2019-06-15T17:25:40.699Z,22.49
2019-06-15T17:28:09.632Z,22.51
2019-06-15T17:30:38.570Z,22.41
2019-06-15T17:33:08.422Z,22.28
2019-06-15T17:35:37.794Z,22.23
2019-06-15T17:38:06.808Z,22.20
2019-06-15T17:40:36.449Z,22.17
2019-06-15T17:43:06.621Z,22.13
2019-06-15T17:45:37.576Z,22.05
2019-06-15T17:48:06.908Z,22.00
2019-06-15T17:50:40.219Z,22.00
2019-06-15T17:53:09.172Z,21.97
2019-06-15T17:55:39.149Z,21.89
2019-06-15T17:58:08.132Z,21.86
2019-06-15T18:00:42.953Z,21.80
2019-06-15T18:03:12.373Z,21.74
2019-06-15T18:05:41.691Z,21.63
2019-06-15T18:08:11.327Z,21.50
2019-06-15T18:10:40.598Z,21.42
2019-06-15T18:13:09.537Z,21.33
2019-06-15T18:15:38.707Z,21.24
2019-06-15T18:18:07.662Z,21.18
2019-06-15T18:20:37.066Z,21.11
2019-06-15T18:23:06.366Z,21.08
2019-06-15T18:25:37.196Z,21.05
2019-06-15T18:28:06.437Z,21.01
2019-06-15T18:30:37.171Z,20.98
2019-06-15T18:33:07.115Z,20.99
2019-06-15T18:35:36.472Z,21.03
2019-06-15T18:38:07.216Z,21.03
2019-06-15T18:40:37.197Z,21.06
2019-06-15T18:43:07.313Z,21.02
2019-06-15T18:45:36.473Z,21.06
2019-06-15T18:48:06.238Z,21.10
2019-06-15T18:50:37.727Z,21.10
2019-06-15T18:53:07.363Z,21.11
2019-06-15T18:55:36.581Z,21.10
2019-06-15T18:58:05.882Z,21.08
2019-06-15T19:00:37.123Z,21.07
2019-06-15T19:03:06.934Z,21.03
2019-06-15T19:05:37.468Z,20.98
2019-06-15T19:08:06.957Z,20.96
2019-06-15T19:10:36.922Z,20.91
2019-06-15T19:13:07.538Z,20.88
2019-06-15T19:15:37.423Z,20.78
2019-06-15T19:18:07.616Z,20.68
2019-06-15T19:20:37.441Z,20.62
2019-06-15T19:23:07.297Z,20.57
2019-06-15T19:25:36.763Z,20.50
2019-06-15T19:28:05.908Z,20.44
2019-06-15T19:30:37.281Z,20.38
2019-06-15T19:33:06.124Z,20.33
2019-06-15T19:35:36.351Z,20.26
2019-06-15T19:38:06.559Z,20.21
2019-06-15T19:40:37.781Z,20.14
2019-06-15T19:43:06.878Z,20.08
2019-06-15T19:45:37.059Z,20.02
2019-06-15T19:48:06.823Z,19.97
2019-06-15T19:50:36.525Z,19.89
2019-06-15T19:53:07.056Z,19.77
2019-06-15T19:55:36.422Z,19.65
2019-06-15T19:58:07.174Z,19.58
2019-06-15T20:00:36.629Z,19.58
2019-06-15T20:03:06.990Z,19.55
2019-06-15T20:05:37.280Z,19.43
2019-06-15T20:08:07.234Z,19.32
2019-06-15T20:10:37.282Z,19.23
2019-06-15T20:13:07.168Z,19.16
2019-06-15T20:15:37.664Z,19.08
2019-06-15T20:18:07.249Z,19.01
2019-06-15T20:20:37.083Z,18.93
2019-06-15T20:23:07.280Z,18.87
2019-06-15T20:25:37.016Z,18.82
2019-06-15T20:28:07.115Z,18.76
2019-06-15T20:30:37.142Z,18.73
2019-06-15T20:33:07.995Z,18.70
2019-06-15T20:35:36.892Z,18.67
2019-06-15T20:38:06.062Z,18.58
2019-06-15T20:40:36.565Z,18.52
2019-06-15T20:43:07.606Z,18.44
2019-06-15T20:45:37.133Z,18.38
2019-06-15T20:48:06.852Z,18.30
2019-06-15T20:50:36.476Z,18.23
2019-06-15T20:53:06.116Z,18.14
2019-06-15T20:55:37.278Z,18.08
2019-06-15T20:58:06.646Z,18.04
2019-06-15T21:00:36.774Z,18.01
2019-06-15T21:03:06.873Z,17.98
2019-06-15T21:05:41.038Z,17.94
2019-06-15T21:08:07.142Z,17.91
2019-06-15T21:10:37.266Z,17.88
2019-06-15T21:13:06.439Z,17.81
2019-06-15T21:15:38.610Z,17.77
2019-06-15T21:18:07.633Z,17.72
2019-06-15T21:20:36.603Z,17.67
2019-06-15T21:23:06.707Z,17.64
2019-06-15T21:25:35.837Z,17.45
2019-06-15T21:28:06.693Z,17.41
2019-06-15T21:30:36.875Z,17.35
2019-06-15T21:33:07.074Z,17.32
2019-06-15T21:35:48.189Z,17.26
2019-06-15T21:38:07.106Z,17.21
2019-06-15T21:40:36.959Z,17.16
2019-06-15T21:43:07.028Z,17.10
2019-06-15T21:45:36.765Z,17.07
2019-06-15T21:48:06.797Z,17.03
2019-06-15T21:50:36.321Z,16.98
2019-06-15T21:53:06.975Z,16.95
2019-06-15T21:55:36.450Z,16.93
2019-06-15T21:58:07.579Z,16.92
2019-06-15T22:00:47.824Z,16.91
2019-06-15T22:03:17.033Z,16.91
2019-06-15T22:05:50.068Z,16.92
2019-06-15T22:08:17.164Z,16.93
2019-06-15T22:10:46.362Z,16.89
2019-06-15T22:13:16.009Z,16.85
2019-06-15T22:15:46.642Z,16.81
2019-06-15T22:18:16.467Z,16.76
2019-06-15T22:20:47.125Z,16.69
2019-06-15T22:23:16.686Z,16.62
2019-06-15T22:25:46.363Z,16.56
2019-06-15T22:28:16.459Z,16.50
2019-06-15T22:30:46.342Z,16.44
2019-06-15T22:33:16.531Z,16.37
2019-06-15T22:35:47.514Z,16.33
2019-06-15T22:38:16.456Z,16.30
2019-06-15T22:40:47.048Z,16.26
2019-06-15T22:43:16.768Z,16.24
2019-06-15T22:45:49.777Z,16.18
2019-06-15T22:48:16.686Z,16.21
2019-06-15T22:50:46.816Z,16.18
2019-06-15T22:53:16.563Z,16.19
2019-06-15T22:55:46.407Z,16.17
2019-06-15T22:58:17.923Z,16.15
2019-06-15T23:00:47.007Z,16.16
2019-06-15T23:03:16.851Z,16.17
2019-06-15T23:05:46.409Z,16.15
2019-06-15T23:08:16.278Z,16.17
2019-06-15T23:10:46.824Z,16.20
2019-06-15T23:13:16.222Z,16.21
2019-06-15T23:15:47.073Z,16.24
2019-06-15T23:18:17.156Z,16.26
2019-06-15T23:20:46.427Z,16.29
2019-06-15T23:23:16.286Z,16.31
2019-06-15T23:25:47.241Z,16.31
2019-06-15T23:28:16.570Z,16.29
2019-06-15T23:30:47.304Z,16.27
2019-06-15T23:33:17.215Z,16.26
2019-06-15T23:35:52.131Z,16.28
2019-06-15T23:38:21.487Z,16.32
2019-06-15T23:40:50.765Z,16.34
2019-06-15T23:43:20.211Z,16.32
2019-06-15T23:45:49.440Z,16.27
2019-06-15T23:48:18.644Z,16.25
2019-06-15T23:50:47.643Z,16.24
2019-06-15T23:53:17.063Z,16.20
2019-06-15T23:55:47.233Z,16.19
2019-06-15T23:58:17.640Z,16.19
